Time;durP1;ratioP1;P1;durP2;ratioP2;P2;SDS_P1;SDS_P2;PMS_P1;PMS_P2;Temp;Humidity;BMP_temperature;BMP_pressure;BME280_temperature;BME280_humidity;BME280_pressure;Samples;Min_cycle;Max_cycle;Signal;HPM_P1;HPM_P2
2022/09/16 00:02:07;;;;;;;7.68;5.45;;;14.50;21.60;;;;;;7365689;19;20010;-65
2022/09/16 00:04:39;;;;;;;7.30;5.68;;;14.50;21.20;;;;;;7391754;19;20038;-65
2022/09/16 00:07:09;;;;;;;6.60;5.28;;;14.50;21.30;;;;;;7357872;19;20057;-65
2022/09/16 00:09:39;;;;;;;9.50;6.55;;;14.60;21.50;;;;;;7368635;19;20054;-66
2022/09/16 00:12:10;;;;;;;9.55;5.55;;;14.60;21.70;;;;;;7366589;19;20021;-65
2022/09/16 00:14:39;;;;;;;7.35;5.72;;;14.60;21.70;;;;;;7369636;19;20038;-65
2022/09/16 00:17:09;;;;;;;6.93;5.63;;;14.60;21.50;;;;;;7357689;19;20010;-66
2022/09/16 00:19:42;;;;;;;10.48;5.60;;;14.50;20.80;;;;;;7368040;19;20656;-66
2022/09/16 00:22:12;;;;;;;8.88;5.50;;;14.50;21.20;;;;;;7385082;19;20592;-66
2022/09/16 00:24:41;;;;;;;8.13;5.20;;;14.50;21.30;;;;;;7370485;19;20470;-65
2022/09/16 00:27:12;;;;;;;6.93;5.20;;;14.50;20.90;;;;;;7359359;19;20438;-66
2022/09/16 00:29:41;;;;;;;8.23;5.45;;;14.50;21.50;;;;;;7368922;19;20014;-65
2022/09/16 00:32:11;;;;;;;10.75;6.03;;;14.50;22.30;;;;;;7368288;19;20018;-65
2022/09/16 00:34:44;;;;;;;7.13;5.68;;;14.50;21.90;;;;;;7370396;19;20475;-66
2022/09/16 00:37:13;;;;;;;10.68;5.85;;;14.50;22.10;;;;;;7380604;19;20071;-66
2022/09/16 00:39:43;;;;;;;8.90;5.60;;;14.50;22.40;;;;;;7368524;19;20010;-65
2022/09/16 00:42:13;;;;;;;11.40;6.38;;;14.50;22.80;;;;;;7367829;19;20454;-65
2022/09/16 00:44:58;;;;;;;8.40;5.30;;;14.40;22.70;;;;;;7370019;19;20007;-65
2022/09/16 00:47:32;;;;;;;8.20;5.43;;;14.40;24.90;;;;;;7358918;19;21500;-65
2022/09/16 00:50:08;;;;;;;;;;;14.40;24.10;;;;;;7370997;19;20053;-66
2022/09/16 00:52:39;;;;;;;6.90;5.43;;;14.40;23.60;;;;;;7375105;19;20327;-66
2022/09/16 00:55:13;;;;;;;9.77;5.65;;;14.40;23.50;;;;;;7391882;19;20386;-65
2022/09/16 00:57:44;;;;;;;7.63;5.95;;;14.40;24.10;;;;;;7356665;19;20034;-65
2022/09/16 01:00:14;;;;;;;8.40;5.30;;;14.40;24.50;;;;;;7369105;19;20646;-65
2022/09/16 01:02:46;;;;;;;7.28;5.43;;;14.40;24.40;;;;;;7367071;19;20019;-65
2022/09/16 01:05:22;;;;;;;8.20;5.63;;;14.30;24.20;;;;;;7369500;19;20077;-65
2022/09/16 01:07:53;;;;;;;8.27;5.35;;;14.30;24.70;;;;;;7356660;19;20014;-66
2022/09/16 01:10:26;;;;;;;8.02;5.70;;;14.30;25.00;;;;;;7390667;19;20021;-65
2022/09/16 01:12:58;;;;;;;9.48;5.43;;;14.30;25.00;;;;;;7364288;19;20020;-65
2022/09/16 01:15:34;;;;;;;6.43;5.45;;;14.20;24.90;;;;;;7368349;19;20014;-66
2022/09/16 01:18:15;;;;;;;8.35;5.38;;;14.20;26.10;;;;;;7360188;19;20386;-65
2022/09/16 01:21:15;;;;;;;9.63;5.90;;;14.20;27.00;;;;;;7365697;19;20018;-66
2022/09/16 01:24:15;;;;;;;8.05;5.60;;;14.20;27.00;;;;;;7369088;19;20014;-65
2022/09/16 01:27:20;;;;;;;6.75;5.60;;;14.20;26.30;;;;;;7362691;19;20007;-65
2022/09/16 01:30:08;;;;;;;13.25;5.95;;;14.20;25.90;;;;;;7367344;19;20478;-65
2022/09/16 01:32:55;;;;;;;6.15;5.20;;;14.10;26.80;;;;;;7366574;19;20013;-65
2022/09/16 01:35:35;;;;;;;5.95;5.35;;;14.10;27.10;;;;;;7368232;19;20015;-65
2022/09/16 01:38:16;;;;;;;8.60;5.63;;;14.00;27.50;;;;;;7361288;19;20015;-66
2022/09/16 01:40:56;;;;;;;8.10;5.93;;;14.00;27.60;;;;;;7365673;19;20014;-65
2022/09/16 01:43:32;;;;;;;9.05;6.00;;;13.90;28.30;;;;;;7389902;19;20011;-65
2022/09/16 01:46:06;;;;;;;10.95;5.80;;;13.80;28.60;;;;;;7362383;19;20672;-65
2022/09/16 01:48:44;;;;;;;9.75;6.00;;;13.80;27.90;;;;;;7363495;19;20007;-65
2022/09/16 01:51:23;;;;;;;7.35;5.30;;;13.80;28.10;;;;;;7363811;19;20436;-65
2022/09/16 01:54:02;;;;;;;9.00;4.90;;;13.80;26.50;;;;;;7367937;19;20007;-65
2022/09/16 01:56:39;;;;;;;6.28;4.80;;;13.80;25.60;;;;;;7362005;19;20025;-65
2022/09/16 01:59:11;;;;;;;7.43;5.00;;;13.80;24.70;;;;;;7363679;19;20474;-65
2022/09/16 02:01:48;;;;;;;6.50;4.70;;;13.70;24.60;;;;;;7364046;19;20014;-65
2022/09/16 02:04:26;;;;;;;9.02;5.10;;;13.70;24.60;;;;;;7389387;19;20011;-65
2022/09/16 02:06:58;;;;;;;7.22;4.93;;;13.70;24.60;;;;;;7360469;19;20009;-65
2022/09/16 02:09:32;;;;;;;7.03;4.88;;;13.70;24.40;;;;;;7363498;19;20018;-65
2022/09/16 02:12:06;;;;;;;5.85;4.30;;;13.60;23.20;;;;;;7362868;19;20070;-65
2022/09/16 02:14:40;;;;;;;5.93;4.45;;;13.60;22.20;;;;;;7367914;19;20662;-65
2022/09/16 02:17:12;;;;;;;5.47;4.18;;;13.60;22.20;;;;;;7358369;19;20478;-65
2022/09/16 02:19:50;;;;;;;5.85;4.25;;;13.60;21.90;;;;;;7363295;19;20459;-66
2022/09/16 02:22:27;;;;;;;8.68;4.40;;;13.50;21.30;;;;;;7384873;19;20010;-66
2022/09/16 02:24:57;;;;;;;5.35;4.18;;;13.60;21.50;;;;;;7366619;19;20738;-65
2022/09/16 02:27:29;;;;;;;5.07;4.20;;;13.50;21.00;;;;;;7356075;19;20010;-65
2022/09/16 02:30:04;;;;;;;6.00;4.30;;;13.50;20.00;;;;;;7366509;19;20478;-65
2022/09/16 02:32:38;;;;;;;11.15;4.65;;;13.50;20.00;;;;;;7363676;19;20463;-65
2022/09/16 02:35:14;;;;;;;4.85;3.90;;;13.40;20.40;;;;;;7366136;19;20475;-65
2022/09/16 02:37:49;;;;;;;7.03;3.70;;;13.40;19.10;;;;;;7356000;19;20014;-66
2022/09/16 02:40:25;;;;;;;7.18;3.83;;;13.40;18.70;;;;;;7387768;19;20019;-65
2022/09/16 02:42:55;;;;;;;8.07;4.05;;;13.30;19.50;;;;;;7361528;19;20007;-65
2022/09/16 02:45:32;;;;;;;5.07;3.63;;;13.30;20.50;;;;;;7366942;19;20386;-65
2022/09/16 02:48:06;;;;;;;8.30;3.88;;;13.20;20.10;;;;;;7356724;19;20006;-65
2022/09/16 02:50:44;;;;;;;5.88;3.80;;;13.30;20.90;;;;;;7364357;19;20018;-65
2022/09/16 02:53:26;;;;;;;7.97;3.63;;;13.30;21.20;;;;;;7365376;19;20439;-65
2022/09/16 02:55:59;;;;;;;8.43;4.57;;;13.20;20.10;;;;;;7361109;19;21003;-65
2022/09/16 02:58:30;;;;;;;6.45;3.47;;;13.20;21.70;;;;;;7383383;19;20336;-65
2022/09/16 03:01:01;;;;;;;6.03;3.67;;;13.20;21.10;;;;;;7362673;19;20521;-65
2022/09/16 03:03:30;;;;;;;6.95;3.40;;;13.30;21.00;;;;;;7363118;19;20015;-65
2022/09/16 03:06:17;;;;;;;6.55;3.95;;;13.30;19.80;;;;;;7359041;19;20082;-64
2022/09/16 03:08:48;;;;;;;6.50;4.10;;;13.30;19.00;;;;;;7362415;19;20014;-65
2022/09/16 03:11:33;;;;;;;8.18;3.97;;;13.30;18.20;;;;;;7362907;19;20479;-65
2022/09/16 03:14:20;;;;;;;7.35;3.80;;;13.20;18.20;;;;;;7365488;19;20728;-65
2022/09/16 03:17:01;;;;;;;6.88;3.72;;;13.30;18.00;;;;;;7359352;19;20462;-65
2022/09/16 03:19:40;;;;;;;6.15;3.75;;;13.30;17.30;;;;;;7383375;19;20007;-64
2022/09/16 03:22:20;;;;;;;7.28;3.60;;;13.40;16.50;;;;;;7362377;19;20010;-65
2022/09/16 03:24:57;;;;;;;6.40;3.65;;;13.40;16.40;;;;;;7364583;19;20051;-65
2022/09/16 03:27:33;;;;;;;7.10;3.97;;;13.40;16.30;;;;;;7354754;19;20013;-64
2022/09/16 03:30:06;;;;;;;8.27;3.92;;;13.40;15.60;;;;;;7364518;19;20725;-64
2022/09/16 03:32:39;;;;;;;6.72;3.63;;;13.40;15.90;;;;;;7369938;19;20021;-64
2022/09/16 03:35:13;;;;;;;5.10;3.90;;;13.40;17.20;;;;;;7372219;19;20011;-64
2022/09/16 03:37:47;;;;;;;5.97;4.00;;;13.60;17.50;;;;;;7360242;19;20015;-64
2022/09/16 03:40:19;;;;;;;9.13;3.55;;;13.60;16.20;;;;;;7393340;19;20007;-64
2022/09/16 03:42:49;;;;;;;4.55;3.70;;;13.60;15.20;;;;;;7368222;19;20397;-64
2022/09/16 03:45:22;;;;;;;9.27;4.18;;;13.60;15.60;;;;;;7371446;19;20018;-64
2022/09/16 03:47:54;;;;;;;8.40;4.30;;;13.60;14.60;;;;;;7360994;19;20810;-64
2022/09/16 03:50:24;;;;;;;5.85;3.50;;;13.70;15.20;;;;;;7370838;19;20025;-64
2022/09/16 03:52:56;;;;;;;6.28;3.20;;;13.60;13.50;;;;;;7369785;19;20021;-64
2022/09/16 03:55:26;;;;;;;12.15;3.75;;;13.50;14.20;;;;;;7392443;19;20007;-64
2022/09/16 03:57:56;;;;;;;5.03;3.28;;;13.60;14.60;;;;;;7360036;19;20675;-65
2022/09/16 04:00:27;;;;;;;6.45;3.30;;;13.60;13.50;;;;;;7369917;19;20013;-65
2022/09/16 04:02:57;;;;;;;4.97;3.30;;;13.60;12.70;;;;;;7367082;19;20006;-65
2022/09/16 04:05:27;;;;;;;5.07;3.35;;;13.60;12.20;;;;;;7370799;19;20026;-64
2022/09/16 04:08:00;;;;;;;8.85;4.20;;;13.50;12.30;;;;;;7360485;19;20019;-64
2022/09/16 04:10:29;;;;;;;6.63;3.40;;;13.50;12.20;;;;;;7391471;19;20502;-64
2022/09/16 04:13:00;;;;;;;5.45;3.13;;;13.50;13.30;;;;;;7370097;19;20013;-64
2022/09/16 04:15:29;;;;;;;6.32;3.50;;;13.50;12.90;;;;;;7369878;19;20006;-65
2022/09/16 04:18:01;;;;;;;7.00;4.00;;;13.60;14.00;;;;;;7359071;19;20371;-64
2022/09/16 04:20:31;;;;;;;5.35;3.83;;;13.50;14.80;;;;;;7369622;19;20022;-64
2022/09/16 04:23:03;;;;;;;5.18;3.78;;;13.50;14.80;;;;;;7369823;19;20014;-64
2022/09/16 04:25:33;;;;;;;6.03;3.95;;;13.50;15.50;;;;;;7391073;19;20506;-64
2022/09/16 04:28:04;;;;;;;6.32;3.80;;;13.50;15.80;;;;;;7367076;19;20040;-64
2022/09/16 04:30:34;;;;;;;8.00;4.05;;;13.50;17.40;;;;;;7367325;19;20086;-64
2022/09/16 04:33:03;;;;;;;5.05;3.38;;;13.50;17.40;;;;;;7368268;19;20021;-65
2022/09/16 04:35:33;;;;;;;9.93;5.03;;;13.40;17.40;;;;;;7369961;19;20015;-65
2022/09/16 04:38:05;;;;;;;5.82;4.43;;;13.50;17.80;;;;;;7366128;19;20049;-65
2022/09/16 04:40:36;;;;;;;9.07;4.38;;;13.50;19.10;;;;;;7389028;19;20478;-65
2022/09/16 04:43:06;;;;;;;8.38;4.50;;;13.50;19.20;;;;;;7365848;19;20082;-65
2022/09/16 04:45:36;;;;;;;5.13;4.00;;;13.50;19.80;;;;;;7368992;19;20006;-65
2022/09/16 04:48:06;;;;;;;6.40;4.15;;;13.50;19.20;;;;;;7366258;19;20750;-65
2022/09/16 04:50:35;;;;;;;12.35;5.05;;;13.40;20.30;;;;;;7366724;19;20022;-65
2022/09/16 04:53:08;;;;;;;8.52;4.60;;;13.40;20.90;;;;;;7368626;19;20034;-65
2022/09/16 04:55:37;;;;;;;8.02;5.00;;;13.30;21.50;;;;;;7385246;19;20018;-66
2022/09/16 04:58:07;;;;;;;6.85;4.63;;;13.40;22.40;;;;;;7385288;19;20395;-65
2022/09/16 05:00:37;;;;;;;10.50;5.28;;;13.40;22.60;;;;;;7365842;19;20032;-65
2022/09/16 05:03:07;;;;;;;6.78;4.80;;;13.30;22.70;;;;;;7366817;19;20031;-65
2022/09/16 05:05:37;;;;;;;9.25;5.07;;;13.30;23.90;;;;;;7368223;19;20011;-65
2022/09/16 05:08:09;;;;;;;12.20;5.65;;;13.20;24.20;;;;;;7366329;19;20006;-65
2022/09/16 05:10:39;;;;;;;10.18;5.85;;;13.30;25.30;;;;;;7370835;19;20437;-65
2022/09/16 05:13:09;;;;;;;11.15;5.45;;;13.20;25.80;;;;;;7389641;19;20014;-65
2022/09/16 05:15:38;;;;;;;8.82;5.95;;;13.30;25.40;;;;;;7366464;19;20365;-65
2022/09/16 05:18:08;;;;;;;8.63;5.18;;;13.30;25.40;;;;;;7363035;19;20376;-65
2022/09/16 05:20:38;;;;;;;7.65;5.68;;;13.30;25.00;;;;;;7365754;19;20014;-64
2022/09/16 05:23:10;;;;;;;9.18;5.82;;;13.30;25.80;;;;;;7367684;19;20007;-64
2022/09/16 05:25:40;;;;;;;11.18;6.13;;;13.40;27.80;;;;;;7366738;19;20014;-65
2022/09/16 05:28:10;;;;;;;9.38;5.72;;;13.30;26.40;;;;;;7387402;19;20014;-64
2022/09/16 05:30:40;;;;;;;7.53;4.97;;;13.30;27.50;;;;;;7363539;19;20014;-64
2022/09/16 05:33:09;;;;;;;9.90;6.00;;;13.30;25.30;;;;;;7365783;19;20015;-65
2022/09/16 05:35:40;;;;;;;8.02;5.70;;;13.20;24.20;;;;;;7366453;19;20043;-64
2022/09/16 05:38:13;;;;;;;9.60;5.88;;;13.20;26.10;;;;;;7365697;19;20010;-65
2022/09/16 05:40:43;;;;;;;7.63;5.30;;;13.20;27.50;;;;;;7363691;19;20489;-65
2022/09/16 05:43:13;;;;;;;9.48;5.72;;;13.20;25.90;;;;;;7387823;19;20022;-64
2022/09/16 05:45:42;;;;;;;8.95;5.15;;;13.20;25.80;;;;;;7364324;19;20078;-64
2022/09/16 05:48:12;;;;;;;9.10;5.32;;;13.20;24.20;;;;;;7364790;19;20043;-65
2022/09/16 05:50:42;;;;;;;11.50;5.45;;;13.20;26.10;;;;;;7362223;19;21257;-64
2022/09/16 05:53:14;;;;;;;9.55;5.55;;;13.40;27.80;;;;;;7365214;19;20018;-65
2022/09/16 05:55:44;;;;;;;9.13;5.05;;;13.30;25.50;;;;;;7361265;19;20372;-65
2022/09/16 05:58:14;;;;;;;7.97;5.20;;;13.30;26.40;;;;;;7387064;19;20025;-64
2022/09/16 06:00:45;;;;;;;7.68;4.93;;;13.30;24.90;;;;;;7362707;19;20018;-66
2022/09/16 06:03:15;;;;;;;6.85;5.03;;;13.30;25.50;;;;;;7365067;19;20011;-64
2022/09/16 06:05:45;;;;;;;6.30;5.13;;;13.30;26.30;;;;;;7363045;19;20379;-65
2022/09/16 06:08:18;;;;;;;8.25;5.03;;;13.30;26.90;;;;;;7364693;19;20035;-64
2022/09/16 06:10:47;;;;;;;8.30;4.80;;;13.30;25.60;;;;;;7363836;19;20367;-65
2022/09/16 06:13:18;;;;;;;9.18;4.60;;;13.30;24.80;;;;;;7387722;19;20026;-65
2022/09/16 06:15:52;;;;;;;8.25;4.50;;;13.30;25.70;;;;;;7363195;19;20017;-64
2022/09/16 06:18:23;;;;;;;10.20;4.88;;;13.30;24.00;;;;;;7361389;19;20021;-64
2022/09/16 06:20:53;;;;;;;11.98;4.80;;;13.30;24.20;;;;;;7365291;19;20068;-65
2022/09/16 06:23:26;;;;;;;9.43;4.90;;;13.30;23.70;;;;;;7365710;19;20065;-65
2022/09/16 06:26:01;;;;;;;6.32;4.03;;;13.30;23.80;;;;;;7362056;19;20038;-65
2022/09/16 06:28:31;;;;;;;7.20;3.95;;;13.30;23.20;;;;;;7381533;19;20392;-64
2022/09/16 06:31:07;;;;;;;7.95;4.28;;;13.20;24.30;;;;;;7363424;19;20817;-64
2022/09/16 06:33:37;;;;;;;10.82;4.15;;;13.20;24.30;;;;;;7364169;19;20018;-65
2022/09/16 06:36:10;;;;;;;9.88;4.65;;;13.10;24.20;;;;;;7363120;19;20570;-65
2022/09/16 06:38:43;;;;;;;9.52;4.50;;;13.10;26.50;;;;;;7359878;19;21672;-65
2022/09/16 06:41:14;;;;;;;7.22;4.90;;;13.00;26.90;;;;;;7364151;19;20006;-65
2022/09/16 06:43:44;;;;;;;9.07;4.75;;;13.00;28.90;;;;;;7364397;19;20014;-66
2022/09/16 06:46:15;;;;;;;8.25;4.90;;;12.90;30.40;;;;;;7384453;19;20443;-66
2022/09/16 06:48:49;;;;;;;10.63;4.88;;;12.80;33.20;;;;;;7363328;19;20604;-65
2022/09/16 06:51:21;;;;;;;10.27;5.63;;;12.70;35.10;;;;;;7361012;19;20017;-65
2022/09/16 06:53:55;;;;;;;7.38;5.32;;;12.60;37.00;;;;;;7363752;19;20018;-65
2022/09/16 06:56:26;;;;;;;10.73;5.82;;;12.60;39.30;;;;;;7359791;19;20014;-65
2022/09/16 06:58:56;;;;;;;13.23;6.10;;;12.60;41.00;;;;;;7360498;19;20021;-64
2022/09/16 07:01:28;;;;;;;9.10;5.45;;;12.60;42.90;;;;;;7382227;19;20034;-65
2022/09/16 07:03:59;;;;;;;9.13;5.90;;;12.70;43.60;;;;;;7363259;19;20014;-65
2022/09/16 07:06:31;;;;;;;10.50;6.25;;;12.60;43.50;;;;;;7358087;19;20018;-66
2022/09/16 07:09:24;;;;;;;11.55;5.63;;;12.60;44.40;;;;;;7358971;19;20044;-65
2022/09/16 07:11:54;;;;;;;11.02;5.75;;;12.50;43.50;;;;;;7362787;19;20031;-65
2022/09/16 07:14:24;;;;;;;11.02;5.90;;;12.50;43.50;;;;;;7365112;19;20458;-64
2022/09/16 07:16:54;;;;;;;9.65;5.45;;;12.40;43.80;;;;;;7359224;19;20015;-64
2022/09/16 07:19:24;;;;;;;12.13;6.05;;;12.40;44.30;;;;;;7381248;19;20540;-65
2022/09/16 07:21:54;;;;;;;9.82;5.72;;;12.30;43.20;;;;;;7362668;19;20075;-65
2022/09/16 07:24:26;;;;;;;10.77;6.57;;;12.30;44.70;;;;;;7362953;19;20486;-65
2022/09/16 07:26:56;;;;;;;9.70;6.35;;;12.40;46.30;;;;;;7360533;19;20593;-65
2022/09/16 07:29:26;;;;;;;11.88;6.47;;;12.30;44.80;;;;;;7358069;19;20017;-66
2022/09/16 07:31:56;;;;;;;9.02;5.93;;;12.40;45.30;;;;;;7361067;19;20474;-65
2022/09/16 07:34:26;;;;;;;10.02;6.03;;;12.30;42.70;;;;;;7386084;19;20014;-67
2022/09/16 07:36:56;;;;;;;7.13;6.05;;;12.40;43.50;;;;;;7359585;19;20014;-66
2022/09/16 07:39:28;;;;;;;8.77;6.00;;;12.50;43.40;;;;;;7357886;19;20324;-65
2022/09/16 07:41:58;;;;;;;9.30;6.25;;;12.40;43.30;;;;;;7361271;19;20014;-66
2022/09/16 07:44:34;;;;;;;12.50;8.10;;;12.60;43.10;;;;;;7364359;19;20074;-65
2022/09/16 07:47:04;;;;;;;10.95;6.25;;;12.80;43.70;;;;;;7357771;19;20071;-66
2022/09/16 07:49:34;;;;;;;7.30;6.03;;;12.70;43.60;;;;;;7380136;19;20022;-66
2022/09/16 07:52:04;;;;;;;10.73;5.50;;;12.90;44.10;;;;;;7361012;19;20010;-65
2022/09/16 07:54:36;;;;;;;6.80;6.10;;;12.80;42.20;;;;;;7385460;19;20011;-65
2022/09/16 07:57:06;;;;;;;9.90;6.57;;;13.00;43.00;;;;;;7382085;19;20022;-65
2022/09/16 07:59:36;;;;;;;8.98;6.18;;;13.10;42.80;;;;;;7380668;19;20010;-65
2022/09/16 08:02:06;;;;;;;8.27;5.68;;;13.00;40.30;;;;;;7385414;19;20014;-65
2022/09/16 08:04:36;;;;;;;7.57;5.35;;;13.20;39.40;;;;;;7386502;19;20547;-65
2022/09/16 08:07:06;;;;;;;10.18;6.15;;;13.20;36.70;;;;;;7380991;19;20359;-66
2022/09/16 08:09:39;;;;;;;11.25;6.15;;;13.20;38.80;;;;;;7380852;19;20466;-65
2022/09/16 08:12:18;;;;;;;8.90;6.53;;;13.30;39.80;;;;;;7384159;19;20017;-65
2022/09/16 08:14:48;;;;;;;8.63;6.28;;;13.30;39.70;;;;;;7385563;19;20560;-66
2022/09/16 08:17:18;;;;;;;10.65;6.63;;;13.40;41.40;;;;;;7384143;19;20014;-65
2022/09/16 08:19:48;;;;;;;12.57;6.82;;;13.20;39.30;;;;;;7387815;19;20011;-65
2022/09/16 08:22:18;;;;;;;9.77;6.78;;;13.20;41.40;;;;;;7391409;19;20007;-65
2022/09/16 08:24:51;;;;;;;9.10;6.82;;;13.30;42.80;;;;;;7392384;19;20029;-65
2022/09/16 08:27:20;;;;;;;8.77;6.93;;;13.30;41.20;;;;;;7386769;19;20014;-65
2022/09/16 08:29:50;;;;;;;9.32;7.30;;;13.30;41.30;;;;;;7384240;19;20365;-65
2022/09/16 08:32:20;;;;;;;11.35;6.75;;;13.50;42.30;;;;;;7388781;19;20042;-65
2022/09/16 08:34:50;;;;;;;12.10;6.10;;;13.60;40.40;;;;;;7391024;19;20014;-65
2022/09/16 08:37:19;;;;;;;7.65;5.47;;;13.70;40.30;;;;;;7387511;19;20022;-65
2022/09/16 08:39:52;;;;;;;8.48;5.65;;;13.80;36.10;;;;;;7386595;19;20014;-65
2022/09/16 08:42:38;;;;;;;7.40;5.72;;;13.70;34.90;;;;;;7386772;19;20499;-65
2022/09/16 08:45:20;;;;;;;7.63;5.10;;;13.70;31.10;;;;;;7389169;19;20481;-65
2022/09/16 08:48:02;;;;;;;8.52;5.50;;;13.70;33.20;;;;;;7385707;19;20015;-65
2022/09/16 08:50:36;;;;;;;7.43;4.90;;;13.80;35.30;;;;;;7383995;19;20025;-65
2022/09/16 08:53:12;;;;;;;7.18;4.70;;;13.70;32.50;;;;;;7387365;19;20514;-66
2022/09/16 08:55:48;;;;;;;9.70;5.95;;;13.70;29.60;;;;;;7389836;19;20486;-65
2022/09/16 08:58:21;;;;;;;12.45;7.28;;;14.00;35.30;;;;;;7388854;19;20029;-65
2022/09/16 09:00:56;;;;;;;10.90;5.18;;;14.10;35.50;;;;;;7385928;19;20061;-65
2022/09/16 09:03:36;;;;;;;7.78;5.15;;;13.90;30.90;;;;;;7387670;19;20430;-65
2022/09/16 09:06:16;;;;;;;7.43;4.82;;;13.90;30.00;;;;;;7386337;19;20022;-65
2022/09/16 09:08:55;;;;;;;10.40;4.93;;;13.70;29.00;;;;;;7384231;19;20021;-64
2022/09/16 09:11:49;;;;;;;7.55;4.85;;;13.80;31.50;;;;;;7388966;19;20026;-66
2022/09/16 09:14:36;;;;;;;6.20;4.75;;;14.00;32.00;;;;;;7388678;19;20019;-65
2022/09/16 09:17:15;;;;;;;8.43;4.95;;;14.10;30.00;;;;;;7384667;19;20018;-64
2022/09/16 09:20:03;;;;;;;10.20;5.22;;;13.90;29.50;;;;;;7384520;19;20042;-65
2022/09/16 09:22:52;;;;;;;8.40;5.20;;;14.00;29.80;;;;;;7389111;19;20011;-65
2022/09/16 09:25:27;;;;;;;8.80;5.07;;;14.00;27.10;;;;;;7388164;19;20010;-67
2022/09/16 09:28:16;;;;;;;9.68;5.60;;;14.10;28.00;;;;;;7381920;19;20022;-66
2022/09/16 09:30:57;;;;;;;8.43;6.13;;;14.30;30.40;;;;;;7383701;19;20014;-65
2022/09/16 09:33:35;;;;;;;7.38;4.95;;;14.20;29.70;;;;;;7388383;19;20110;-65
2022/09/16 09:36:44;;;;;;;7.53;5.35;;;14.20;30.00;;;;;;7384236;19;20113;-65
2022/09/16 09:39:33;;;;;;;7.55;5.22;;;14.30;30.50;;;;;;7382878;19;20020;-65
2022/09/16 09:42:11;;;;;;;8.63;5.18;;;14.20;28.40;;;;;;7385594;19;20050;-65
2022/09/16 09:44:51;;;;;;;6.65;4.70;;;14.30;34.00;;;;;;7386629;19;20470;-65
2022/09/16 09:47:28;;;;;;;9.27;5.00;;;14.10;26.10;;;;;;7383799;19;20035;-65
2022/09/16 09:50:00;;;;;;;11.38;5.07;;;14.20;25.90;;;;;;7383522;19;20019;-65
2022/09/16 09:52:37;;;;;;;8.40;5.38;;;14.20;25.60;;;;;;7388746;19;20018;-65
2022/09/16 09:55:17;;;;;;;10.70;5.03;;;13.90;24.30;;;;;;7387795;19;20127;-65
2022/09/16 09:58:04;;;;;;;6.85;5.10;;;14.20;28.80;;;;;;7381956;19;20021;-66
2022/09/16 10:00:36;;;;;;;7.43;5.07;;;14.30;27.80;;;;;;7382778;19;20058;-65
2022/09/16 10:03:09;;;;;;;7.05;5.38;;;14.50;28.50;;;;;;7386426;19;20014;-65
2022/09/16 10:05:39;;;;;;;8.40;4.85;;;14.50;25.60;;;;;;7386179;19;20029;-65
2022/09/16 10:08:18;;;;;;;8.38;4.88;;;14.40;22.50;;;;;;7387125;19;20022;-65
2022/09/16 10:10:52;;;;;;;7.45;4.40;;;14.30;22.90;;;;;;7382833;19;20031;-65
2022/09/16 10:13:24;;;;;;;7.53;4.32;;;14.30;24.00;;;;;;7386365;19;21051;-65
2022/09/16 10:16:09;;;;;;;8.82;4.55;;;14.20;23.50;;;;;;7384612;19;20022;-65
2022/09/16 10:18:39;;;;;;;5.88;4.50;;;14.30;23.30;;;;;;7384486;19;20031;-65
2022/09/16 10:21:12;;;;;;;10.35;4.70;;;14.30;22.50;;;;;;7382397;19;20022;-65
2022/09/16 10:23:42;;;;;;;6.47;4.50;;;14.30;25.10;;;;;;7386144;19;20022;-66
2022/09/16 10:26:21;;;;;;;6.53;4.68;;;14.00;22.60;;;;;;7384336;19;20046;-65
2022/09/16 10:29:02;;;;;;;7.18;4.28;;;14.00;24.80;;;;;;7381639;19;20018;-65
2022/09/16 10:31:39;;;;;;;6.65;4.63;;;14.10;26.10;;;;;;7385826;19;20011;-65
2022/09/16 10:34:19;;;;;;;7.82;4.90;;;13.90;21.50;;;;;;7386391;19;20343;-65
2022/09/16 10:37:01;;;;;;;9.68;5.47;;;13.80;23.30;;;;;;7380423;19;20014;-65
2022/09/16 10:39:33;;;;;;;9.93;5.50;;;13.90;25.20;;;;;;7380746;19;20033;-64
2022/09/16 10:42:05;;;;;;;8.02;4.68;;;13.90;25.00;;;;;;7386099;19;20011;-66
2022/09/16 10:44:36;;;;;;;8.43;4.70;;;13.70;21.80;;;;;;7385860;19;20025;-65
2022/09/16 10:47:19;;;;;;;9.30;5.25;;;13.80;23.60;;;;;;7381123;19;20042;-65
2022/09/16 10:49:52;;;;;;;7.97;5.55;;;13.90;24.10;;;;;;7379949;19;20038;-65
2022/09/16 10:52:25;;;;;;;8.35;5.18;;;13.90;24.80;;;;;;7387114;19;20010;-64
2022/09/16 10:54:55;;;;;;;8.65;5.38;;;13.90;24.70;;;;;;7386155;19;20478;-65
2022/09/16 10:57:32;;;;;;;6.72;5.43;;;13.90;24.60;;;;;;7380855;19;20010;-64
2022/09/16 11:00:08;;;;;;;6.95;5.25;;;14.00;27.60;;;;;;7377985;19;20026;-65
2022/09/16 11:03:04;;;;;;;10.88;6.13;;;14.10;27.10;;;;;;7386013;19;20028;-65
2022/09/16 11:05:39;;;;;;;6.68;5.60;;;14.10;26.50;;;;;;7387336;19;20379;-65
2022/09/16 11:08:16;;;;;;;20.65;12.68;;;14.30;27.70;;;;;;7384322;19;20037;-64
2022/09/16 11:10:54;;;;;;;12.38;5.38;;;14.30;26.00;;;;;;7378786;19;20017;-65
2022/09/16 11:13:36;;;;;;;5.60;4.72;;;14.20;24.70;;;;;;7386872;19;20662;-65
2022/09/16 11:16:17;;;;;;;6.90;5.03;;;14.30;25.90;;;;;;7383427;19;20019;-65
2022/09/16 11:18:57;;;;;;;5.90;4.30;;;14.30;22.00;;;;;;7384945;19;20011;-66
2022/09/16 11:21:49;;;;;;;7.65;4.47;;;14.40;25.10;;;;;;7384316;19;20506;-67
2022/09/16 11:24:45;;;;;;;8.30;4.32;;;14.30;22.60;;;;;;7385249;19;20057;-64
2022/09/16 11:27:24;;;;;;;11.70;6.63;;;14.30;20.30;;;;;;7382033;19;20018;-64
2022/09/16 11:30:04;;;;;;;6.03;3.78;;;14.50;22.10;;;;;;7379572;19;20023;-65
2022/09/16 11:32:50;;;;;;;7.25;3.78;;;14.40;18.10;;;;;;7386277;19;20094;-65
2022/09/16 11:35:36;;;;;;;7.05;3.80;;;14.60;18.20;;;;;;7385883;19;20025;-65
2022/09/16 11:38:16;;;;;;;4.63;3.47;;;14.30;16.40;;;;;;7382192;19;20018;-65
2022/09/16 11:40:50;;;;;;;5.93;3.53;;;14.50;16.70;;;;;;7373961;19;20011;-65
2022/09/16 11:43:41;;;;;;;5.32;2.95;;;14.40;20.00;;;;;;7384801;19;20021;-65
2022/09/16 11:46:19;;;;;;;7.18;3.08;;;14.40;14.80;;;;;;7381387;19;20522;-65
2022/09/16 11:49:03;;;;;;;8.77;2.78;;;14.30;14.60;;;;;;7382495;19;21370;-65
2022/09/16 11:51:48;;;;;;;7.55;3.50;;;14.50;13.80;;;;;;7386093;19;20017;-65
2022/09/16 11:54:23;;;;;;;;;;;14.80;14.60;;;;;;7393585;19;20023;-65
2022/09/16 11:56:58;;;;;;;5.13;3.05;;;15.00;12.40;;;;;;7386896;19;20340;-65
2022/09/16 11:59:29;;;;;;;;;;;14.70;7.20;;;;;;7388631;19;20082;-65
2022/09/16 12:02:04;;;;;;;5.97;1.88;;;15.00;5.60;;;;;;7393753;19;19921;-65
2022/09/16 12:04:39;;;;;;;5.70;2.40;;;15.20;1.60;;;;;;7391273;19;20034;-65
2022/09/16 12:07:13;;;;;;;;;;;15.40;1.00;;;;;;7388877;19;20375;-64
2022/09/16 12:09:50;;;;;;;5.70;2.67;;;15.60;1.00;;;;;;7386842;19;19931;-66
2022/09/16 12:12:22;;;;;;;6.20;2.28;;;15.40;1.00;;;;;;7392706;19;20011;-65
2022/09/16 12:14:57;;;;;;;5.82;2.25;;;15.30;1.00;;;;;;7391141;19;20478;-65
2022/09/16 12:17:37;;;;;;;3.05;2.35;;;15.60;1.00;;;;;;7387505;19;20011;-65
2022/09/16 12:20:15;;;;;;;4.40;2.70;;;15.30;1.00;;;;;;7386085;19;20015;-65
2022/09/16 12:22:53;;;;;;;7.78;2.92;;;15.10;1.00;;;;;;7394652;19;20315;-65
2022/09/16 12:25:29;;;;;;;7.57;3.08;;;15.10;1.00;;;;;;7391573;19;20086;-65
2022/09/16 12:28:04;;;;;;;4.78;2.30;;;15.30;1.00;;;;;;7386995;19;20021;-64
2022/09/16 12:30:38;;;;;;;4.50;2.13;;;15.70;1.00;;;;;;7385823;19;20026;-65
2022/09/16 12:33:16;;;;;;;4.20;2.10;;;16.00;1.00;;;;;;7392781;19;20315;-65
2022/09/16 12:35:56;;;;;;;6.30;2.65;;;15.50;1.00;;;;;;7390008;19;20028;-65
2022/09/16 12:38:29;;;;;;;4.60;2.05;;;15.80;1.00;;;;;;7387105;19;20015;-66
2022/09/16 12:41:14;;;;;;;7.57;2.47;;;16.30;1.00;;;;;;7386735;19;20018;-64
2022/09/16 12:44:21;;;;;;;5.40;1.88;;;16.50;1.00;;;;;;7392415;19;20007;-65
2022/09/16 12:47:28;;;;;;;5.90;2.30;;;16.70;1.00;;;;;;7359979;19;20021;-66
2022/09/16 12:50:25;;;;;;;3.70;2.00;;;16.50;1.00;;;;;;7350745;19;20025;-64
2022/09/16 12:53:49;;;;;;;3.53;2.10;;;16.30;1.00;;;;;;7366635;19;20082;-64
2022/09/16 12:56:38;;;;;;;6.95;2.15;;;17.00;1.00;;;;;;7359645;19;20015;-65
2022/09/16 12:59:38;;;;;;;3.65;2.40;;;16.90;1.00;;;;;;7362584;19;20010;-65
2022/09/16 13:02:16;;;;;;;3.10;1.50;;;17.10;1.00;;;;;;7367244;19;20015;-64
2022/09/16 13:04:48;;;;;;;2.85;1.80;;;17.20;1.00;;;;;;7363829;19;20018;-64
2022/09/16 13:07:24;;;;;;;6.05;2.03;;;17.30;1.00;;;;;;7381297;19;20018;-65
2022/09/16 13:10:03;;;;;;;5.45;1.70;;;16.50;1.00;;;;;;7357874;19;20006;-65
2022/09/16 13:12:37;;;;;;;4.22;1.90;;;16.50;1.00;;;;;;7364302;19;20366;-65
2022/09/16 13:15:26;;;;;;;2.95;1.60;;;17.40;1.00;;;;;;7366925;19;20172;-64
2022/09/16 13:17:56;;;;;;;2.95;1.83;;;17.20;1.00;;;;;;7362746;19;20066;-65
2022/09/16 13:20:32;;;;;;;4.38;1.80;;;17.50;1.00;;;;;;7360313;19;20379;-65
2022/09/16 13:23:08;;;;;;;4.95;1.80;;;17.00;1.00;;;;;;7367533;19;20494;-66
2022/09/16 13:25:49;;;;;;;6.15;2.10;;;17.60;1.00;;;;;;7365944;19;20023;-66
2022/09/16 13:28:38;;;;;;;5.07;2.03;;;17.20;1.00;;;;;;7387585;19;20010;-65
2022/09/16 13:31:19;;;;;;;2.45;1.63;;;17.50;1.00;;;;;;7363509;19;20481;-65